In Rescue
 
Open Full Screen Window  High Contrast Mode
Wind Gusting 00 knots
05
May 25, 2022 9:51 PM CDT
Weather Information
Wind Direction
  010 °
Wind Speed
  05 kt (6 mph)
Wind Gust
  00 kt (0 mph)
Altimeter
29.88 in
Visibility
10 SM
Temperature
09° C
48° F
Dewpoint
04° C
39° F
Humidity
71%
1hr Rain Fall
00.00 in.
24hr Rain Fall
00.25 in.
Sky Condition
Overcast @ 1,000 ft
MVFR

METAR KCBG 260251Z AUTO 01005KT 10SM OVC010 09/04 A2988 RMK AO2

FAA Disclaimer: The data displayed is for advisory purposes only and is not to be used for flight planning or operations.